sensor_id;sensor_type;location;lat;lon;timestamp;P1;durP1;ratioP1;P2;durP2;ratioP2
10059;SDS011;5069;49.306;8.636;2022-09-30T00:01:27;8.57;;;3.50;;
10059;SDS011;5069;49.306;8.636;2022-09-30T00:04:29;6.50;;;3.73;;
10059;SDS011;5069;49.306;8.636;2022-09-30T00:07:30;5.40;;;3.63;;
10059;SDS011;5069;49.306;8.636;2022-09-30T00:10:32;5.63;;;3.80;;
10059;SDS011;5069;49.306;8.636;2022-09-30T00:13:35;4.03;;;3.40;;
10059;SDS011;5069;49.306;8.636;2022-09-30T00:16:38;4.53;;;3.67;;
10059;SDS011;5069;49.306;8.636;2022-09-30T00:19:40;6.40;;;3.90;;
10059;SDS011;5069;49.306;8.636;2022-09-30T00:22:41;4.93;;;3.90;;
10059;SDS011;5069;49.306;8.636;2022-09-30T00:25:42;7.10;;;4.00;;
10059;SDS011;5069;49.306;8.636;2022-09-30T00:28:44;7.47;;;4.37;;
10059;SDS011;5069;49.306;8.636;2022-09-30T00:31:49;4.50;;;3.80;;
10059;SDS011;5069;49.306;8.636;2022-09-30T00:34:50;7.30;;;3.60;;
10059;SDS011;5069;49.306;8.636;2022-09-30T00:37:52;6.93;;;4.00;;
10059;SDS011;5069;49.306;8.636;2022-09-30T00:40:55;6.77;;;4.03;;
10059;SDS011;5069;49.306;8.636;2022-09-30T00:43:57;6.47;;;3.93;;
10059;SDS011;5069;49.306;8.636;2022-09-30T00:46:58;5.13;;;3.70;;
10059;SDS011;5069;49.306;8.636;2022-09-30T00:50:02;6.63;;;3.77;;
10059;SDS011;5069;49.306;8.636;2022-09-30T00:53:13;4.93;;;3.93;;
10059;SDS011;5069;49.306;8.636;2022-09-30T00:56:20;3.73;;;3.33;;
10059;SDS011;5069;49.306;8.636;2022-09-30T00:59:26;5.50;;;3.53;;
10059;SDS011;5069;49.306;8.636;2022-09-30T01:02:31;4.43;;;3.70;;
10059;SDS011;5069;49.306;8.636;2022-09-30T01:05:33;7.67;;;3.90;;
10059;SDS011;5069;49.306;8.636;2022-09-30T01:08:37;7.37;;;4.27;;
10059;SDS011;5069;49.306;8.636;2022-09-30T01:11:40;6.63;;;3.80;;
10059;SDS011;5069;49.306;8.636;2022-09-30T01:14:45;6.40;;;4.07;;
10059;SDS011;5069;49.306;8.636;2022-09-30T01:17:53;8.30;;;4.23;;
10059;SDS011;5069;49.306;8.636;2022-09-30T01:31:42;6.90;;;3.93;;
10059;SDS011;5069;49.306;8.636;2022-09-30T01:35:24;6.90;;;4.40;;
10059;SDS011;5069;49.306;8.636;2022-09-30T01:38:43;5.30;;;3.97;;
10059;SDS011;5069;49.306;8.636;2022-09-30T01:42:21;6.90;;;4.30;;
10059;SDS011;5069;49.306;8.636;2022-09-30T01:45:36;4.10;;;3.40;;
10059;SDS011;5069;49.306;8.636;2022-09-30T01:48:50;4.80;;;3.37;;
10059;SDS011;5069;49.306;8.636;2022-09-30T01:55:10;7.73;;;3.87;;
10059;SDS011;5069;49.306;8.636;2022-09-30T01:58:18;4.80;;;3.67;;
10059;SDS011;5069;49.306;8.636;2022-09-30T02:01:38;4.30;;;3.53;;
10059;SDS011;5069;49.306;8.636;2022-09-30T02:04:46;4.03;;;3.20;;
10059;SDS011;5069;49.306;8.636;2022-09-30T02:07:56;8.87;;;4.23;;
10059;SDS011;5069;49.306;8.636;2022-09-30T02:11:05;5.10;;;3.73;;
10059;SDS011;5069;49.306;8.636;2022-09-30T02:14:20;5.07;;;3.90;;
10059;SDS011;5069;49.306;8.636;2022-09-30T02:17:27;9.87;;;4.23;;
10059;SDS011;5069;49.306;8.636;2022-09-30T02:20:34;5.73;;;3.63;;
10059;SDS011;5069;49.306;8.636;2022-09-30T02:23:41;5.83;;;3.73;;
10059;SDS011;5069;49.306;8.636;2022-09-30T02:26:47;5.90;;;3.73;;
10059;SDS011;5069;49.306;8.636;2022-09-30T02:29:52;5.63;;;3.73;;
10059;SDS011;5069;49.306;8.636;2022-09-30T02:33:04;4.37;;;3.93;;
10059;SDS011;5069;49.306;8.636;2022-09-30T02:36:14;4.47;;;3.70;;
10059;SDS011;5069;49.306;8.636;2022-09-30T02:39:24;7.97;;;4.07;;
10059;SDS011;5069;49.306;8.636;2022-09-30T02:42:28;4.13;;;3.60;;
10059;SDS011;5069;49.306;8.636;2022-09-30T02:45:34;7.33;;;3.30;;
10059;SDS011;5069;49.306;8.636;2022-09-30T02:49:07;5.97;;;3.73;;
10059;SDS011;5069;49.306;8.636;2022-09-30T02:52:19;7.60;;;3.90;;
10059;SDS011;5069;49.306;8.636;2022-09-30T02:59:05;3.77;;;3.20;;
10059;SDS011;5069;49.306;8.636;2022-09-30T03:02:06;4.60;;;3.60;;
10059;SDS011;5069;49.306;8.636;2022-09-30T03:05:08;3.93;;;3.50;;
10059;SDS011;5069;49.306;8.636;2022-09-30T03:08:10;6.37;;;3.67;;
10059;SDS011;5069;49.306;8.636;2022-09-30T03:11:33;6.10;;;3.47;;
10059;SDS011;5069;49.306;8.636;2022-09-30T03:14:51;4.30;;;3.47;;
10059;SDS011;5069;49.306;8.636;2022-09-30T03:18:21;7.77;;;3.90;;
10059;SDS011;5069;49.306;8.636;2022-09-30T03:31:03;7.97;;;3.10;;
10059;SDS011;5069;49.306;8.636;2022-09-30T03:41:04;5.70;;;2.83;;
10059;SDS011;5069;49.306;8.636;2022-09-30T03:44:08;4.10;;;2.87;;
10059;SDS011;5069;49.306;8.636;2022-09-30T03:47:17;4.77;;;3.10;;
10059;SDS011;5069;49.306;8.636;2022-09-30T03:50:22;5.67;;;2.87;;
10059;SDS011;5069;49.306;8.636;2022-09-30T03:53:25;5.70;;;2.90;;
10059;SDS011;5069;49.306;8.636;2022-09-30T03:56:29;3.73;;;2.80;;
10059;SDS011;5069;49.306;8.636;2022-09-30T03:59:31;7.33;;;3.47;;
10059;SDS011;5069;49.306;8.636;2022-09-30T04:02:33;4.70;;;3.10;;
10059;SDS011;5069;49.306;8.636;2022-09-30T04:05:36;9.40;;;3.10;;
10059;SDS011;5069;49.306;8.636;2022-09-30T04:08:38;5.63;;;3.00;;
10059;SDS011;5069;49.306;8.636;2022-09-30T04:11:39;6.97;;;3.17;;
10059;SDS011;5069;49.306;8.636;2022-09-30T04:14:41;3.77;;;2.77;;
10059;SDS011;5069;49.306;8.636;2022-09-30T04:17:42;5.80;;;2.87;;
10059;SDS011;5069;49.306;8.636;2022-09-30T04:20:44;7.70;;;3.77;;
10059;SDS011;5069;49.306;8.636;2022-09-30T04:23:45;6.67;;;3.00;;
10059;SDS011;5069;49.306;8.636;2022-09-30T04:26:47;5.63;;;2.90;;
10059;SDS011;5069;49.306;8.636;2022-09-30T04:29:49;4.83;;;2.40;;
10059;SDS011;5069;49.306;8.636;2022-09-30T04:32:50;5.33;;;3.00;;
10059;SDS011;5069;49.306;8.636;2022-09-30T04:35:52;3.27;;;2.17;;
10059;SDS011;5069;49.306;8.636;2022-09-30T04:38:57;4.13;;;2.40;;
10059;SDS011;5069;49.306;8.636;2022-09-30T04:41:58;6.23;;;2.67;;
10059;SDS011;5069;49.306;8.636;2022-09-30T04:45:00;3.33;;;2.50;;
10059;SDS011;5069;49.306;8.636;2022-09-30T04:48:01;5.00;;;2.60;;
10059;SDS011;5069;49.306;8.636;2022-09-30T04:51:03;3.57;;;2.67;;
10059;SDS011;5069;49.306;8.636;2022-09-30T04:54:04;3.17;;;2.50;;
10059;SDS011;5069;49.306;8.636;2022-09-30T04:57:06;5.13;;;2.20;;
10059;SDS011;5069;49.306;8.636;2022-09-30T05:00:07;3.47;;;2.60;;
10059;SDS011;5069;49.306;8.636;2022-09-30T05:03:10;4.47;;;2.20;;
10059;SDS011;5069;49.306;8.636;2022-09-30T05:06:11;3.37;;;2.50;;
10059;SDS011;5069;49.306;8.636;2022-09-30T05:09:13;7.10;;;2.30;;
10059;SDS011;5069;49.306;8.636;2022-09-30T05:12:15;3.87;;;2.50;;
10059;SDS011;5069;49.306;8.636;2022-09-30T05:15:16;5.70;;;3.20;;
10059;SDS011;5069;49.306;8.636;2022-09-30T05:18:18;5.23;;;2.87;;
10059;SDS011;5069;49.306;8.636;2022-09-30T05:21:20;4.63;;;2.90;;
10059;SDS011;5069;49.306;8.636;2022-09-30T05:24:22;5.97;;;2.83;;
10059;SDS011;5069;49.306;8.636;2022-09-30T05:27:23;3.53;;;3.00;;
10059;SDS011;5069;49.306;8.636;2022-09-30T05:30:25;3.00;;;2.80;;
10059;SDS011;5069;49.306;8.636;2022-09-30T05:33:27;3.60;;;2.90;;
10059;SDS011;5069;49.306;8.636;2022-09-30T05:36:29;3.70;;;3.03;;
10059;SDS011;5069;49.306;8.636;2022-09-30T05:39:31;4.37;;;3.10;;
10059;SDS011;5069;49.306;8.636;2022-09-30T05:42:32;7.73;;;3.10;;
10059;SDS011;5069;49.306;8.636;2022-09-30T05:45:36;8.10;;;3.63;;
10059;SDS011;5069;49.306;8.636;2022-09-30T05:48:38;9.47;;;5.47;;
10059;SDS011;5069;49.306;8.636;2022-09-30T05:51:40;4.60;;;4.10;;
10059;SDS011;5069;49.306;8.636;2022-09-30T05:54:42;7.90;;;3.70;;
10059;SDS011;5069;49.306;8.636;2022-09-30T05:57:46;5.40;;;3.47;;
10059;SDS011;5069;49.306;8.636;2022-09-30T06:00:49;5.00;;;3.00;;
10059;SDS011;5069;49.306;8.636;2022-09-30T06:03:50;6.50;;;3.13;;
10059;SDS011;5069;49.306;8.636;2022-09-30T06:06:52;6.67;;;3.70;;
10059;SDS011;5069;49.306;8.636;2022-09-30T06:09:53;11.87;;;7.53;;
10059;SDS011;5069;49.306;8.636;2022-09-30T06:12:55;10.13;;;6.60;;
10059;SDS011;5069;49.306;8.636;2022-09-30T06:15:59;6.97;;;5.40;;
10059;SDS011;5069;49.306;8.636;2022-09-30T06:19:02;9.93;;;5.23;;
10059;SDS011;5069;49.306;8.636;2022-09-30T06:22:03;5.17;;;3.70;;
10059;SDS011;5069;49.306;8.636;2022-09-30T06:25:05;5.73;;;3.57;;
10059;SDS011;5069;49.306;8.636;2022-09-30T06:28:07;6.23;;;3.80;;
10059;SDS011;5069;49.306;8.636;2022-09-30T06:31:08;4.87;;;3.50;;
10059;SDS011;5069;49.306;8.636;2022-09-30T06:34:12;5.53;;;3.23;;
10059;SDS011;5069;49.306;8.636;2022-09-30T06:37:14;6.30;;;3.10;;
10059;SDS011;5069;49.306;8.636;2022-09-30T06:40:16;5.83;;;3.43;;
10059;SDS011;5069;49.306;8.636;2022-09-30T06:43:18;3.30;;;2.90;;
10059;SDS011;5069;49.306;8.636;2022-09-30T06:46:21;3.07;;;2.70;;
10059;SDS011;5069;49.306;8.636;2022-09-30T06:49:30;3.10;;;2.80;;
10059;SDS011;5069;49.306;8.636;2022-09-30T06:52:47;4.33;;;2.50;;
10059;SDS011;5069;49.306;8.636;2022-09-30T06:55:53;5.87;;;3.20;;
10059;SDS011;5069;49.306;8.636;2022-09-30T06:58:56;8.37;;;3.63;;
10059;SDS011;5069;49.306;8.636;2022-09-30T07:01:57;7.63;;;4.80;;
10059;SDS011;5069;49.306;8.636;2022-09-30T07:04:59;9.90;;;5.80;;
10059;SDS011;5069;49.306;8.636;2022-09-30T07:08:03;7.73;;;6.30;;
10059;SDS011;5069;49.306;8.636;2022-09-30T07:11:09;10.67;;;7.90;;
10059;SDS011;5069;49.306;8.636;2022-09-30T07:14:14;15.87;;;9.23;;
10059;SDS011;5069;49.306;8.636;2022-09-30T07:17:16;14.20;;;9.97;;
10059;SDS011;5069;49.306;8.636;2022-09-30T07:20:17;14.60;;;11.70;;
10059;SDS011;5069;49.306;8.636;2022-09-30T07:23:19;15.50;;;10.30;;
10059;SDS011;5069;49.306;8.636;2022-09-30T07:26:27;14.77;;;11.03;;
10059;SDS011;5069;49.306;8.636;2022-09-30T07:29:29;22.07;;;15.10;;
10059;SDS011;5069;49.306;8.636;2022-09-30T07:32:51;19.83;;;14.00;;
10059;SDS011;5069;49.306;8.636;2022-09-30T07:35:57;17.43;;;14.00;;
10059;SDS011;5069;49.306;8.636;2022-09-30T07:39:01;16.33;;;13.10;;
10059;SDS011;5069;49.306;8.636;2022-09-30T07:42:07;16.90;;;13.60;;
10059;SDS011;5069;49.306;8.636;2022-09-30T07:45:09;20.03;;;15.10;;
10059;SDS011;5069;49.306;8.636;2022-09-30T07:48:11;21.27;;;15.63;;
10059;SDS011;5069;49.306;8.636;2022-09-30T07:51:34;22.77;;;15.97;;
10059;SDS011;5069;49.306;8.636;2022-09-30T07:54:40;18.43;;;15.13;;
10059;SDS011;5069;49.306;8.636;2022-09-30T07:57:49;20.47;;;16.37;;
10059;SDS011;5069;49.306;8.636;2022-09-30T08:00:51;19.07;;;15.80;;
10059;SDS011;5069;49.306;8.636;2022-09-30T08:03:53;24.03;;;17.13;;
10059;SDS011;5069;49.306;8.636;2022-09-30T08:06:57;22.00;;;17.43;;
10059;SDS011;5069;49.306;8.636;2022-09-30T08:10:00;21.87;;;16.90;;
10059;SDS011;5069;49.306;8.636;2022-09-30T08:13:01;20.17;;;16.20;;
10059;SDS011;5069;49.306;8.636;2022-09-30T08:16:06;27.97;;;16.83;;
10059;SDS011;5069;49.306;8.636;2022-09-30T08:19:12;22.77;;;17.67;;
10059;SDS011;5069;49.306;8.636;2022-09-30T08:22:16;20.70;;;16.87;;
10059;SDS011;5069;49.306;8.636;2022-09-30T08:25:17;22.77;;;16.30;;
10059;SDS011;5069;49.306;8.636;2022-09-30T08:28:19;18.30;;;15.43;;
10059;SDS011;5069;49.306;8.636;2022-09-30T08:31:21;20.27;;;15.90;;
10059;SDS011;5069;49.306;8.636;2022-09-30T08:34:24;21.53;;;14.93;;
10059;SDS011;5069;49.306;8.636;2022-09-30T08:37:25;20.40;;;14.83;;
10059;SDS011;5069;49.306;8.636;2022-09-30T08:40:27;17.90;;;14.13;;
10059;SDS011;5069;49.306;8.636;2022-09-30T08:43:38;17.60;;;15.13;;
10059;SDS011;5069;49.306;8.636;2022-09-30T08:46:47;17.63;;;14.90;;
10059;SDS011;5069;49.306;8.636;2022-09-30T08:53:08;18.17;;;14.80;;
10059;SDS011;5069;49.306;8.636;2022-09-30T08:56:16;19.10;;;15.23;;
10059;SDS011;5069;49.306;8.636;2022-09-30T08:59:41;18.23;;;14.10;;
10059;SDS011;5069;49.306;8.636;2022-09-30T09:02:56;15.57;;;13.47;;
10059;SDS011;5069;49.306;8.636;2022-09-30T09:06:07;19.13;;;15.23;;
10059;SDS011;5069;49.306;8.636;2022-09-30T09:19:36;17.23;;;14.40;;
10059;SDS011;5069;49.306;8.636;2022-09-30T09:22:43;20.27;;;15.03;;
10059;SDS011;5069;49.306;8.636;2022-09-30T09:25:46;19.97;;;14.80;;
10059;SDS011;5069;49.306;8.636;2022-09-30T09:29:00;20.70;;;14.23;;
10059;SDS011;5069;49.306;8.636;2022-09-30T09:32:23;16.73;;;13.77;;
10059;SDS011;5069;49.306;8.636;2022-09-30T09:35:28;16.27;;;12.67;;
10059;SDS011;5069;49.306;8.636;2022-09-30T09:42:05;11.93;;;9.10;;
10059;SDS011;5069;49.306;8.636;2022-09-30T09:48:36;13.30;;;10.03;;
10059;SDS011;5069;49.306;8.636;2022-09-30T09:51:45;10.80;;;8.23;;
10059;SDS011;5069;49.306;8.636;2022-09-30T09:54:53;13.67;;;9.10;;
10059;SDS011;5069;49.306;8.636;2022-09-30T09:58:12;11.10;;;7.90;;
10059;SDS011;5069;49.306;8.636;2022-09-30T10:01:16;10.33;;;7.07;;
10059;SDS011;5069;49.306;8.636;2022-09-30T10:04:46;9.20;;;6.77;;
10059;SDS011;5069;49.306;8.636;2022-09-30T10:08:00;8.97;;;6.80;;
10059;SDS011;5069;49.306;8.636;2022-09-30T10:14:24;7.97;;;6.50;;
10059;SDS011;5069;49.306;8.636;2022-09-30T10:17:30;7.63;;;6.57;;
10059;SDS011;5069;49.306;8.636;2022-09-30T10:20:35;8.23;;;6.30;;
10059;SDS011;5069;49.306;8.636;2022-09-30T10:23:38;8.33;;;6.37;;
10059;SDS011;5069;49.306;8.636;2022-09-30T10:26:43;8.97;;;6.20;;
10059;SDS011;5069;49.306;8.636;2022-09-30T10:29:49;9.67;;;6.90;;
10059;SDS011;5069;49.306;8.636;2022-09-30T10:32:51;8.97;;;6.67;;
10059;SDS011;5069;49.306;8.636;2022-09-30T10:35:54;7.47;;;6.63;;
10059;SDS011;5069;49.306;8.636;2022-09-30T10:39:23;10.00;;;7.00;;
10059;SDS011;5069;49.306;8.636;2022-09-30T10:42:28;8.73;;;6.90;;
10059;SDS011;5069;49.306;8.636;2022-09-30T10:45:32;7.60;;;6.47;;
10059;SDS011;5069;49.306;8.636;2022-09-30T10:48:38;7.20;;;6.17;;
10059;SDS011;5069;49.306;8.636;2022-09-30T10:51:41;8.07;;;5.57;;
10059;SDS011;5069;49.306;8.636;2022-09-30T10:54:50;7.60;;;6.20;;
10059;SDS011;5069;49.306;8.636;2022-09-30T10:57:54;7.23;;;6.50;;
10059;SDS011;5069;49.306;8.636;2022-09-30T11:01:04;8.43;;;6.30;;
10059;SDS011;5069;49.306;8.636;2022-09-30T11:04:21;9.50;;;5.90;;
10059;SDS011;5069;49.306;8.636;2022-09-30T11:07:32;8.37;;;6.50;;
10059;SDS011;5069;49.306;8.636;2022-09-30T11:13:48;8.20;;;6.87;;
10059;SDS011;5069;49.306;8.636;2022-09-30T11:17:04;7.97;;;6.87;;
10059;SDS011;5069;49.306;8.636;2022-09-30T11:20:24;7.67;;;6.90;;
10059;SDS011;5069;49.306;8.636;2022-09-30T11:23:32;8.47;;;7.00;;
10059;SDS011;5069;49.306;8.636;2022-09-30T11:40:13;8.60;;;5.80;;
10059;SDS011;5069;49.306;8.636;2022-09-30T11:47:15;7.53;;;6.27;;
10059;SDS011;5069;49.306;8.636;2022-09-30T11:50:32;7.97;;;5.87;;
10059;SDS011;5069;49.306;8.636;2022-09-30T11:57:29;6.70;;;4.70;;
10059;SDS011;5069;49.306;8.636;2022-09-30T12:00:37;8.53;;;4.60;;
10059;SDS011;5069;49.306;8.636;2022-09-30T12:03:55;5.60;;;4.37;;
10059;SDS011;5069;49.306;8.636;2022-09-30T12:07:05;6.43;;;4.47;;
10059;SDS011;5069;49.306;8.636;2022-09-30T12:10:17;5.33;;;4.00;;
10059;SDS011;5069;49.306;8.636;2022-09-30T12:13:32;5.63;;;3.30;;
10059;SDS011;5069;49.306;8.636;2022-09-30T12:16:37;5.53;;;3.50;;
10059;SDS011;5069;49.306;8.636;2022-09-30T12:19:43;4.83;;;3.77;;
10059;SDS011;5069;49.306;8.636;2022-09-30T12:22:47;7.13;;;4.23;;
10059;SDS011;5069;49.306;8.636;2022-09-30T12:25:53;7.90;;;4.87;;
10059;SDS011;5069;49.306;8.636;2022-09-30T12:29:01;7.00;;;5.37;;
10059;SDS011;5069;49.306;8.636;2022-09-30T12:50:00;5.17;;;4.30;;
10059;SDS011;5069;49.306;8.636;2022-09-30T12:53:16;7.43;;;4.20;;
10059;SDS011;5069;49.306;8.636;2022-09-30T12:56:25;5.83;;;4.10;;
10059;SDS011;5069;49.306;8.636;2022-09-30T12:59:30;7.37;;;3.23;;
10059;SDS011;5069;49.306;8.636;2022-09-30T13:02:35;7.10;;;3.37;;
10059;SDS011;5069;49.306;8.636;2022-09-30T13:05:46;7.13;;;3.33;;
10059;SDS011;5069;49.306;8.636;2022-09-30T13:21:45;5.07;;;3.20;;
10059;SDS011;5069;49.306;8.636;2022-09-30T13:34:29;6.77;;;3.20;;
10059;SDS011;5069;49.306;8.636;2022-09-30T13:37:34;6.60;;;3.23;;
10059;SDS011;5069;49.306;8.636;2022-09-30T13:40:51;6.73;;;3.23;;
10059;SDS011;5069;49.306;8.636;2022-09-30T13:44:18;6.10;;;3.43;;
10059;SDS011;5069;49.306;8.636;2022-09-30T13:47:29;4.67;;;3.20;;
10059;SDS011;5069;49.306;8.636;2022-09-30T13:50:43;6.73;;;3.20;;
10059;SDS011;5069;49.306;8.636;2022-09-30T13:53:53;7.77;;;3.40;;
10059;SDS011;5069;49.306;8.636;2022-09-30T13:57:01;4.47;;;3.07;;
10059;SDS011;5069;49.306;8.636;2022-09-30T14:00:06;4.87;;;3.30;;
10059;SDS011;5069;49.306;8.636;2022-09-30T14:07:15;3.53;;;2.40;;
10059;SDS011;5069;49.306;8.636;2022-09-30T14:17:22;4.13;;;2.33;;
10059;SDS011;5069;49.306;8.636;2022-09-30T14:24:06;7.20;;;3.30;;
10059;SDS011;5069;49.306;8.636;2022-09-30T14:30:24;5.30;;;3.17;;
10059;SDS011;5069;49.306;8.636;2022-09-30T14:33:26;4.23;;;2.50;;
10059;SDS011;5069;49.306;8.636;2022-09-30T14:36:28;3.37;;;2.13;;
10059;SDS011;5069;49.306;8.636;2022-09-30T14:39:30;6.00;;;2.13;;
10059;SDS011;5069;49.306;8.636;2022-09-30T14:42:35;2.90;;;2.60;;
10059;SDS011;5069;49.306;8.636;2022-09-30T14:45:40;2.83;;;2.30;;
10059;SDS011;5069;49.306;8.636;2022-09-30T14:48:44;3.50;;;2.57;;
10059;SDS011;5069;49.306;8.636;2022-09-30T14:51:48;3.10;;;2.20;;
10059;SDS011;5069;49.306;8.636;2022-09-30T14:54:50;3.60;;;2.30;;
10059;SDS011;5069;49.306;8.636;2022-09-30T14:57:52;3.13;;;2.17;;
10059;SDS011;5069;49.306;8.636;2022-09-30T15:03:59;3.77;;;2.77;;
10059;SDS011;5069;49.306;8.636;2022-09-30T15:07:08;3.23;;;2.33;;
10059;SDS011;5069;49.306;8.636;2022-09-30T15:10:19;3.90;;;2.20;;
10059;SDS011;5069;49.306;8.636;2022-09-30T15:13:23;3.63;;;2.40;;
10059;SDS011;5069;49.306;8.636;2022-09-30T15:16:28;3.87;;;2.23;;
10059;SDS011;5069;49.306;8.636;2022-09-30T15:19:33;3.40;;;2.10;;
10059;SDS011;5069;49.306;8.636;2022-09-30T15:22:42;3.17;;;2.10;;
10059;SDS011;5069;49.306;8.636;2022-09-30T15:25:44;4.27;;;2.37;;
10059;SDS011;5069;49.306;8.636;2022-09-30T15:28:46;2.27;;;1.80;;
10059;SDS011;5069;49.306;8.636;2022-09-30T15:31:49;2.53;;;1.50;;
10059;SDS011;5069;49.306;8.636;2022-09-30T15:35:05;2.67;;;1.50;;
10059;SDS011;5069;49.306;8.636;2022-09-30T15:41:21;2.90;;;1.57;;
10059;SDS011;5069;49.306;8.636;2022-09-30T15:49:09;2.43;;;1.60;;
10059;SDS011;5069;49.306;8.636;2022-09-30T15:52:38;1.90;;;1.53;;
10059;SDS011;5069;49.306;8.636;2022-09-30T15:55:41;3.57;;;1.73;;
10059;SDS011;5069;49.306;8.636;2022-09-30T15:58:53;5.60;;;2.00;;
10059;SDS011;5069;49.306;8.636;2022-09-30T16:01:55;3.70;;;1.70;;
10059;SDS011;5069;49.306;8.636;2022-09-30T16:04:58;3.40;;;1.70;;
10059;SDS011;5069;49.306;8.636;2022-09-30T16:08:08;2.13;;;1.60;;
10059;SDS011;5069;49.306;8.636;2022-09-30T16:11:27;3.07;;;1.90;;
10059;SDS011;5069;49.306;8.636;2022-09-30T16:14:32;2.60;;;1.73;;
10059;SDS011;5069;49.306;8.636;2022-09-30T16:17:46;3.30;;;2.03;;
10059;SDS011;5069;49.306;8.636;2022-09-30T16:21:00;2.87;;;2.00;;
10059;SDS011;5069;49.306;8.636;2022-09-30T16:24:03;2.87;;;1.70;;
10059;SDS011;5069;49.306;8.636;2022-09-30T16:27:24;3.13;;;1.70;;
10059;SDS011;5069;49.306;8.636;2022-09-30T16:30:29;3.47;;;1.77;;
10059;SDS011;5069;49.306;8.636;2022-09-30T16:33:32;3.37;;;1.97;;
10059;SDS011;5069;49.306;8.636;2022-09-30T16:36:38;8.43;;;2.00;;
10059;SDS011;5069;49.306;8.636;2022-09-30T16:39:39;3.57;;;1.80;;
10059;SDS011;5069;49.306;8.636;2022-09-30T16:42:41;4.63;;;2.20;;
10059;SDS011;5069;49.306;8.636;2022-09-30T16:45:42;4.17;;;2.10;;
10059;SDS011;5069;49.306;8.636;2022-09-30T16:48:44;2.27;;;1.83;;
10059;SDS011;5069;49.306;8.636;2022-09-30T16:51:45;3.07;;;1.93;;
10059;SDS011;5069;49.306;8.636;2022-09-30T16:54:47;5.63;;;2.23;;
10059;SDS011;5069;49.306;8.636;2022-09-30T16:57:48;2.90;;;2.00;;
10059;SDS011;5069;49.306;8.636;2022-09-30T17:00:50;5.40;;;2.00;;
10059;SDS011;5069;49.306;8.636;2022-09-30T17:03:53;3.53;;;2.20;;
10059;SDS011;5069;49.306;8.636;2022-09-30T17:06:56;6.93;;;4.00;;
10059;SDS011;5069;49.306;8.636;2022-09-30T17:09:58;10.10;;;4.47;;
10059;SDS011;5069;49.306;8.636;2022-09-30T17:12:59;5.20;;;3.40;;
10059;SDS011;5069;49.306;8.636;2022-09-30T17:16:02;5.60;;;3.30;;
10059;SDS011;5069;49.306;8.636;2022-09-30T17:19:04;4.20;;;3.17;;
10059;SDS011;5069;49.306;8.636;2022-09-30T17:22:05;5.07;;;2.73;;
10059;SDS011;5069;49.306;8.636;2022-09-30T17:25:07;3.80;;;2.57;;
10059;SDS011;5069;49.306;8.636;2022-09-30T17:28:10;4.70;;;2.40;;
10059;SDS011;5069;49.306;8.636;2022-09-30T17:31:13;3.27;;;2.37;;
10059;SDS011;5069;49.306;8.636;2022-09-30T17:34:15;5.47;;;2.50;;
10059;SDS011;5069;49.306;8.636;2022-09-30T17:37:16;5.07;;;2.70;;
10059;SDS011;5069;49.306;8.636;2022-09-30T17:40:19;4.33;;;2.40;;
10059;SDS011;5069;49.306;8.636;2022-09-30T17:43:39;5.73;;;2.70;;
10059;SDS011;5069;49.306;8.636;2022-09-30T17:46:45;4.17;;;2.87;;
10059;SDS011;5069;49.306;8.636;2022-09-30T17:49:46;6.60;;;3.30;;
10059;SDS011;5069;49.306;8.636;2022-09-30T17:52:48;4.80;;;3.40;;
10059;SDS011;5069;49.306;8.636;2022-09-30T17:55:59;4.27;;;3.20;;
10059;SDS011;5069;49.306;8.636;2022-09-30T17:59:02;4.97;;;3.30;;
10059;SDS011;5069;49.306;8.636;2022-09-30T18:02:03;3.73;;;3.03;;
10059;SDS011;5069;49.306;8.636;2022-09-30T18:05:05;4.53;;;3.00;;
10059;SDS011;5069;49.306;8.636;2022-09-30T18:08:07;4.50;;;2.97;;
10059;SDS011;5069;49.306;8.636;2022-09-30T18:11:12;9.87;;;3.07;;
10059;SDS011;5069;49.306;8.636;2022-09-30T18:14:20;7.30;;;3.20;;
10059;SDS011;5069;49.306;8.636;2022-09-30T18:17:21;5.10;;;3.67;;
10059;SDS011;5069;49.306;8.636;2022-09-30T18:20:23;6.10;;;3.93;;
10059;SDS011;5069;49.306;8.636;2022-09-30T18:23:25;7.40;;;4.57;;
10059;SDS011;5069;49.306;8.636;2022-09-30T18:26:27;5.10;;;3.40;;
10059;SDS011;5069;49.306;8.636;2022-09-30T18:29:35;7.30;;;3.17;;
10059;SDS011;5069;49.306;8.636;2022-09-30T18:32:37;3.83;;;2.90;;
10059;SDS011;5069;49.306;8.636;2022-09-30T18:35:39;8.93;;;3.50;;
10059;SDS011;5069;49.306;8.636;2022-09-30T18:38:42;6.57;;;3.53;;
10059;SDS011;5069;49.306;8.636;2022-09-30T18:41:44;6.50;;;4.30;;
10059;SDS011;5069;49.306;8.636;2022-09-30T18:44:46;6.43;;;3.20;;
10059;SDS011;5069;49.306;8.636;2022-09-30T18:47:52;5.30;;;3.13;;
10059;SDS011;5069;49.306;8.636;2022-09-30T18:51:00;8.13;;;3.30;;
10059;SDS011;5069;49.306;8.636;2022-09-30T18:54:05;4.97;;;2.80;;
10059;SDS011;5069;49.306;8.636;2022-09-30T18:57:06;5.23;;;3.20;;
10059;SDS011;5069;49.306;8.636;2022-09-30T19:00:08;5.90;;;3.60;;
10059;SDS011;5069;49.306;8.636;2022-09-30T19:03:12;6.20;;;4.70;;
10059;SDS011;5069;49.306;8.636;2022-09-30T19:06:17;9.10;;;5.57;;
10059;SDS011;5069;49.306;8.636;2022-09-30T19:09:19;8.63;;;5.60;;
10059;SDS011;5069;49.306;8.636;2022-09-30T19:12:20;10.57;;;6.40;;
10059;SDS011;5069;49.306;8.636;2022-09-30T19:15:22;8.90;;;6.00;;
10059;SDS011;5069;49.306;8.636;2022-09-30T19:18:24;13.53;;;6.47;;
10059;SDS011;5069;49.306;8.636;2022-09-30T19:21:25;8.77;;;5.83;;
10059;SDS011;5069;49.306;8.636;2022-09-30T19:24:27;10.67;;;6.37;;
10059;SDS011;5069;49.306;8.636;2022-09-30T19:27:28;8.33;;;6.47;;
10059;SDS011;5069;49.306;8.636;2022-09-30T19:30:30;12.27;;;6.07;;
10059;SDS011;5069;49.306;8.636;2022-09-30T19:33:31;12.33;;;6.80;;
10059;SDS011;5069;49.306;8.636;2022-09-30T19:36:37;10.30;;;6.37;;
10059;SDS011;5069;49.306;8.636;2022-09-30T19:39:51;9.57;;;6.60;;
10059;SDS011;5069;49.306;8.636;2022-09-30T19:42:53;9.73;;;6.00;;
10059;SDS011;5069;49.306;8.636;2022-09-30T19:45:58;12.60;;;7.97;;
10059;SDS011;5069;49.306;8.636;2022-09-30T19:49:01;11.63;;;6.67;;
10059;SDS011;5069;49.306;8.636;2022-09-30T19:52:03;13.47;;;6.13;;
10059;SDS011;5069;49.306;8.636;2022-09-30T19:55:14;12.97;;;9.03;;
10059;SDS011;5069;49.306;8.636;2022-09-30T19:58:17;11.77;;;6.83;;
10059;SDS011;5069;49.306;8.636;2022-09-30T20:01:19;11.63;;;6.77;;
10059;SDS011;5069;49.306;8.636;2022-09-30T20:04:23;9.27;;;6.47;;
10059;SDS011;5069;49.306;8.636;2022-09-30T20:07:26;10.47;;;6.27;;
10059;SDS011;5069;49.306;8.636;2022-09-30T20:10:28;8.80;;;6.10;;
10059;SDS011;5069;49.306;8.636;2022-09-30T20:13:29;9.73;;;7.03;;
10059;SDS011;5069;49.306;8.636;2022-09-30T20:16:31;14.47;;;7.30;;
10059;SDS011;5069;49.306;8.636;2022-09-30T20:19:32;9.93;;;6.97;;
10059;SDS011;5069;49.306;8.636;2022-09-30T20:22:34;8.40;;;7.07;;
10059;SDS011;5069;49.306;8.636;2022-09-30T20:25:36;10.33;;;7.37;;
10059;SDS011;5069;49.306;8.636;2022-09-30T20:28:38;8.43;;;6.93;;
10059;SDS011;5069;49.306;8.636;2022-09-30T20:31:40;10.97;;;7.80;;
10059;SDS011;5069;49.306;8.636;2022-09-30T20:34:43;8.57;;;7.20;;
10059;SDS011;5069;49.306;8.636;2022-09-30T20:37:45;11.93;;;7.30;;
10059;SDS011;5069;49.306;8.636;2022-09-30T20:40:47;10.63;;;8.13;;
10059;SDS011;5069;49.306;8.636;2022-09-30T20:43:56;12.40;;;9.17;;
10059;SDS011;5069;49.306;8.636;2022-09-30T20:46:59;12.30;;;8.70;;
10059;SDS011;5069;49.306;8.636;2022-09-30T20:50:01;9.67;;;8.17;;
10059;SDS011;5069;49.306;8.636;2022-09-30T20:53:03;11.17;;;8.70;;
10059;SDS011;5069;49.306;8.636;2022-09-30T20:56:08;11.93;;;8.50;;
10059;SDS011;5069;49.306;8.636;2022-09-30T20:59:11;12.57;;;9.60;;
10059;SDS011;5069;49.306;8.636;2022-09-30T21:02:14;12.20;;;9.37;;
10059;SDS011;5069;49.306;8.636;2022-09-30T21:05:15;14.73;;;9.10;;
10059;SDS011;5069;49.306;8.636;2022-09-30T21:08:16;12.80;;;9.83;;
10059;SDS011;5069;49.306;8.636;2022-09-30T21:11:18;12.23;;;9.87;;
10059;SDS011;5069;49.306;8.636;2022-09-30T21:14:21;16.47;;;9.93;;
10059;SDS011;5069;49.306;8.636;2022-09-30T21:17:22;10.40;;;8.23;;
10059;SDS011;5069;49.306;8.636;2022-09-30T21:20:24;14.63;;;9.83;;
10059;SDS011;5069;49.306;8.636;2022-09-30T21:23:26;19.43;;;12.40;;